createdAt,value
2023-05-01T00:00:24.374Z,1.80
2023-05-01T00:02:52.228Z,1.70
2023-05-01T00:05:19.636Z,2.10
2023-05-01T00:10:28.850Z,1.90
2023-05-01T00:12:56.033Z,1.80
2023-05-01T00:15:23.685Z,1.80
2023-05-01T00:17:51.537Z,1.93
2023-05-01T00:20:19.097Z,1.90
2023-05-01T00:22:47.151Z,1.37
2023-05-01T00:25:14.523Z,1.70
2023-05-01T00:27:42.817Z,1.90
2023-05-01T00:35:16.228Z,1.87
2023-05-01T00:37:43.804Z,1.97
2023-05-01T00:40:11.574Z,1.90
2023-05-01T00:42:39.973Z,1.80
2023-05-01T00:45:08.364Z,1.90
2023-05-01T00:47:36.385Z,2.23
2023-05-01T00:50:04.598Z,1.90
2023-05-01T00:55:14.328Z,1.77
2023-05-01T00:57:41.635Z,1.70
2023-05-01T01:00:12.172Z,2.20
2023-05-01T01:02:39.429Z,1.90
2023-05-01T01:05:06.789Z,2.27
2023-05-01T01:07:42.155Z,2.53
2023-05-01T01:10:17.626Z,2.10
2023-05-01T01:20:50.011Z,2.77
2023-05-01T01:23:53.203Z,2.90
2023-05-01T01:26:52.171Z,2.97
2023-05-01T01:29:56.399Z,2.70
2023-05-01T01:32:56.433Z,3.00
2023-05-01T01:35:27.180Z,2.70
2023-05-01T01:43:04.361Z,2.97
2023-05-01T01:45:37.624Z,2.43
2023-05-01T01:48:07.627Z,2.37
2023-05-01T01:50:38.867Z,1.93
2023-05-01T01:53:08.750Z,2.07
2023-05-01T01:55:38.340Z,2.13
2023-05-01T01:58:09.895Z,2.20
2023-05-01T02:03:40.751Z,2.27
2023-05-01T02:06:10.968Z,1.97
2023-05-01T02:08:38.295Z,2.33
2023-05-01T02:11:06.382Z,2.60
2023-05-01T02:13:33.725Z,2.17
2023-05-01T02:16:03.414Z,2.13
2023-05-01T02:18:31.762Z,2.20
2023-05-01T02:23:45.150Z,1.93
2023-05-01T02:26:16.634Z,2.10
2023-05-01T02:28:43.888Z,2.33
2023-05-01T02:31:11.676Z,2.20
2023-05-01T02:33:39.499Z,2.33
2023-05-01T02:36:07.754Z,2.10
2023-05-01T02:38:35.174Z,2.77
2023-05-01T02:43:47.261Z,2.60
2023-05-01T02:46:16.644Z,1.90
2023-05-01T02:48:44.399Z,1.87
2023-05-01T02:51:13.183Z,2.30
2023-05-01T02:53:40.669Z,2.10
2023-05-01T02:56:08.665Z,2.07
2023-05-01T02:58:36.663Z,2.37
2023-05-01T03:08:48.347Z,2.00
2023-05-01T03:11:15.874Z,2.27
2023-05-01T03:13:44.182Z,2.40
2023-05-01T03:16:11.516Z,2.43
2023-05-01T03:18:39.229Z,2.30
2023-05-01T03:21:06.579Z,2.20
2023-05-01T03:23:37.774Z,2.13
2023-05-01T03:29:37.571Z,2.63
2023-05-01T03:32:05.350Z,2.93
2023-05-01T03:34:32.661Z,2.00
2023-05-01T03:37:00.118Z,2.60
2023-05-01T03:39:27.014Z,2.70
2023-05-01T03:41:54.511Z,2.57
2023-05-01T03:44:22.519Z,2.63
2023-05-01T03:51:55.987Z,3.00
2023-05-01T03:54:23.410Z,2.33
2023-05-01T03:56:51.303Z,2.30
2023-05-01T03:59:18.433Z,2.37
2023-05-01T04:01:45.945Z,2.87
2023-05-01T04:04:13.366Z,2.27
2023-05-01T04:06:40.603Z,2.67
2023-05-01T04:11:53.234Z,2.70
2023-05-01T04:14:20.638Z,2.73
2023-05-01T04:16:48.098Z,2.60
2023-05-01T04:19:15.526Z,2.70
2023-05-01T04:21:42.943Z,2.47
2023-05-01T04:24:13.261Z,2.70
2023-05-01T04:26:42.161Z,3.07
2023-05-01T04:32:04.758Z,2.60
2023-05-01T04:34:32.447Z,2.93
2023-05-01T04:37:01.387Z,2.60
2023-05-01T04:39:28.544Z,2.97
2023-05-01T04:41:55.739Z,2.87
2023-05-01T04:44:22.690Z,2.70
2023-05-01T04:46:50.535Z,2.93
2023-05-01T04:57:00.368Z,3.30
2023-05-01T04:59:27.822Z,3.03
2023-05-01T05:01:55.254Z,3.17
2023-05-01T05:04:22.902Z,3.10
2023-05-01T05:06:50.478Z,3.20
2023-05-01T05:09:20.045Z,3.27
2023-05-01T05:11:47.562Z,2.93
2023-05-01T05:20:08.136Z,3.13
2023-05-01T05:22:37.226Z,3.43
2023-05-01T05:25:06.088Z,3.03
2023-05-01T05:27:37.612Z,3.13
2023-05-01T05:30:05.624Z,3.67
2023-05-01T05:32:33.176Z,3.70
2023-05-01T05:35:00.929Z,2.50
2023-05-01T05:40:29.907Z,3.50
2023-05-01T05:42:57.308Z,3.57
2023-05-01T05:45:24.406Z,3.53
2023-05-01T05:47:51.738Z,2.57
2023-05-01T05:50:19.184Z,3.90
2023-05-01T05:52:46.380Z,3.57
2023-05-01T05:55:17.037Z,3.53
2023-05-01T05:57:46.336Z,4.10
2023-05-01T06:05:12.275Z,3.70
2023-05-01T06:07:39.831Z,3.93
2023-05-01T06:10:08.542Z,4.50
2023-05-01T06:12:37.543Z,3.60
2023-05-01T06:15:07.726Z,4.70
2023-05-01T06:17:36.960Z,4.63
2023-05-01T06:20:05.707Z,4.40
2023-05-01T06:25:56.512Z,4.73
2023-05-01T06:28:23.388Z,4.77
2023-05-01T06:30:50.422Z,4.03
2023-05-01T06:33:17.452Z,4.37
2023-05-01T06:35:44.260Z,4.47
2023-05-01T06:38:11.211Z,4.30
2023-05-01T06:40:38.576Z,4.00
2023-05-01T06:45:55.995Z,4.43
2023-05-01T06:48:23.376Z,3.83
2023-05-01T06:50:50.290Z,5.70
2023-05-01T06:53:18.588Z,4.20
2023-05-01T06:55:45.866Z,4.30
2023-05-01T06:58:23.615Z,4.23
2023-05-01T07:00:52.486Z,4.23
2023-05-01T07:08:24.459Z,3.97
2023-05-01T07:10:53.222Z,3.77
2023-05-01T07:13:20.679Z,4.83
2023-05-01T07:15:48.214Z,3.87
2023-05-01T07:18:16.722Z,4.53
2023-05-01T07:20:44.212Z,4.07
2023-05-01T07:23:13.060Z,4.63
2023-05-01T07:28:23.217Z,3.93
2023-05-01T07:30:50.867Z,3.23
2023-05-01T07:33:18.047Z,4.03
2023-05-01T07:35:45.271Z,3.90
2023-05-01T07:38:13.608Z,4.03
2023-05-01T07:40:40.522Z,3.83
2023-05-01T07:43:10.683Z,3.80
2023-05-01T07:48:35.066Z,3.77
2023-05-01T07:51:03.609Z,3.67
2023-05-01T07:53:31.766Z,3.60
2023-05-01T07:56:06.549Z,4.20
2023-05-01T07:58:33.439Z,4.83
2023-05-01T08:01:00.947Z,4.67
2023-05-01T08:03:29.365Z,4.23
2023-05-01T08:08:37.756Z,4.30
2023-05-01T08:11:05.071Z,3.60
2023-05-01T08:13:32.301Z,3.40
2023-05-01T08:16:02.926Z,3.60
2023-05-01T08:18:30.374Z,3.97
2023-05-01T08:20:57.633Z,3.90
2023-05-01T08:23:24.951Z,4.60
2023-05-01T08:31:00.110Z,4.53
2023-05-01T08:33:27.896Z,3.60
2023-05-01T08:35:55.387Z,4.43
2023-05-01T08:38:22.578Z,4.93
2023-05-01T08:40:56.302Z,3.73
2023-05-01T08:43:24.464Z,3.60
2023-05-01T08:45:53.823Z,3.00
2023-05-01T08:51:22.401Z,4.20
2023-05-01T08:53:51.640Z,3.60
2023-05-01T08:56:19.638Z,3.57
2023-05-01T08:58:50.515Z,3.57
2023-05-01T09:01:19.825Z,3.30
2023-05-01T09:03:49.901Z,3.60
2023-05-01T09:06:21.421Z,3.70
2023-05-01T09:16:45.676Z,3.57
2023-05-01T09:19:13.026Z,3.50
2023-05-01T09:21:41.085Z,4.00
2023-05-01T09:24:08.467Z,3.73
2023-05-01T09:26:40.248Z,3.50
2023-05-01T09:29:09.625Z,3.03
2023-05-01T09:31:37.215Z,3.77
2023-05-01T09:37:02.921Z,3.27
2023-05-01T09:39:30.068Z,3.63
2023-05-01T09:41:57.328Z,3.77
2023-05-01T09:44:25.131Z,4.10
2023-05-01T09:46:52.499Z,3.83
2023-05-01T09:49:20.130Z,4.20
2023-05-01T09:51:48.128Z,3.97
2023-05-01T09:57:04.786Z,4.20
2023-05-01T09:59:34.297Z,3.60
2023-05-01T10:02:01.945Z,3.57
2023-05-01T10:04:34.118Z,3.83
2023-05-01T10:07:13.080Z,3.50
2023-05-01T10:09:42.330Z,3.50
2023-05-01T10:12:11.173Z,3.23
2023-05-01T10:19:42.690Z,3.40
2023-05-01T10:22:10.064Z,3.10
2023-05-01T10:24:37.377Z,4.17
2023-05-01T10:27:08.318Z,3.23
2023-05-01T10:29:37.389Z,3.60
2023-05-01T10:32:06.864Z,3.47
2023-05-01T10:34:37.777Z,3.20
2023-05-01T10:43:28.087Z,2.83
2023-05-01T10:46:15.843Z,3.10
2023-05-01T10:48:58.434Z,2.83
2023-05-01T10:51:28.349Z,3.60
2023-05-01T10:54:23.988Z,2.50
2023-05-01T10:56:51.457Z,2.90
2023-05-01T10:59:20.088Z,2.73
2023-05-01T11:07:18.561Z,2.87
2023-05-01T11:09:48.421Z,2.47
2023-05-01T11:12:16.720Z,2.50
2023-05-01T11:15:05.176Z,2.23
2023-05-01T11:17:46.690Z,2.40
2023-05-01T11:20:34.798Z,2.30
2023-05-01T11:23:02.748Z,2.00
2023-05-01T11:30:39.389Z,2.00
2023-05-01T11:33:10.136Z,2.13
2023-05-01T11:35:39.137Z,2.23
2023-05-01T11:38:08.075Z,3.23
2023-05-01T11:40:35.971Z,3.27
2023-05-01T11:43:04.661Z,3.30
2023-05-01T11:45:33.128Z,3.30
2023-05-01T11:50:44.703Z,3.30
2023-05-01T11:53:16.156Z,2.93
2023-05-01T11:55:43.981Z,2.60
2023-05-01T11:58:11.663Z,3.17
2023-05-01T12:00:43.430Z,2.63
2023-05-01T12:03:12.931Z,3.87
2023-05-01T12:05:42.517Z,3.93
2023-05-01T12:11:12.661Z,2.50
2023-05-01T12:13:41.301Z,3.87
2023-05-01T12:16:10.596Z,2.83
2023-05-01T12:18:39.133Z,4.00
2023-05-01T12:21:15.291Z,3.67
2023-05-01T12:23:42.963Z,3.60
2023-05-01T12:26:18.735Z,5.17
2023-05-01T12:36:39.590Z,3.47
2023-05-01T12:39:11.374Z,3.20
2023-05-01T12:41:40.895Z,3.87
2023-05-01T12:44:22.272Z,3.20
2023-05-01T12:47:03.142Z,4.03
2023-05-01T12:49:32.499Z,3.63
2023-05-01T12:52:04.353Z,4.07
2023-05-01T12:59:41.989Z,3.63
2023-05-01T13:02:12.644Z,3.73
2023-05-01T13:04:48.778Z,4.70
2023-05-01T13:07:21.653Z,3.83
2023-05-01T13:09:53.112Z,4.43
2023-05-01T13:12:20.954Z,3.53
2023-05-01T13:14:50.388Z,3.87
2023-05-01T13:22:32.399Z,4.37
2023-05-01T13:25:02.841Z,4.03
2023-05-01T13:27:31.903Z,4.13
2023-05-01T13:30:01.830Z,4.07
2023-05-01T13:32:29.311Z,4.00
2023-05-01T13:35:00.353Z,4.37
2023-05-01T13:37:29.280Z,3.87
2023-05-01T13:45:05.858Z,4.53
2023-05-01T13:47:33.504Z,4.80
2023-05-01T13:50:01.307Z,4.60
2023-05-01T13:52:29.090Z,3.87
2023-05-01T13:54:57.052Z,3.83
2023-05-01T13:57:25.427Z,4.07
2023-05-01T13:59:52.906Z,4.20
2023-05-01T14:09:44.745Z,4.20
2023-05-01T14:12:14.016Z,4.67
2023-05-01T14:14:48.429Z,3.80
2023-05-01T14:17:15.765Z,3.80
2023-05-01T14:19:44.147Z,3.93
2023-05-01T14:22:12.550Z,4.40
2023-05-01T14:24:41.864Z,3.77
2023-05-01T14:30:07.657Z,3.77
2023-05-01T14:32:40.524Z,3.80
2023-05-01T14:35:10.964Z,3.57
2023-05-01T14:37:39.852Z,3.80
2023-05-01T14:40:14.815Z,3.57
2023-05-01T14:42:44.101Z,4.60
2023-05-01T14:45:14.566Z,3.90
2023-05-01T14:50:25.483Z,4.47
2023-05-01T14:52:57.387Z,4.07
2023-05-01T14:55:27.867Z,3.87
2023-05-01T14:57:55.238Z,3.30
2023-05-01T15:00:23.259Z,3.37
2023-05-01T15:02:52.172Z,4.07
2023-05-01T15:05:20.785Z,3.47
2023-05-01T15:11:07.147Z,3.53
2023-05-01T15:13:34.258Z,3.60
2023-05-01T15:16:01.614Z,4.03
2023-05-01T15:18:28.681Z,4.47
2023-05-01T15:20:55.994Z,3.50
2023-05-01T15:23:26.858Z,3.40
2023-05-01T15:25:54.383Z,3.93
2023-05-01T15:31:19.530Z,3.37
2023-05-01T15:33:47.403Z,3.47
2023-05-01T15:36:15.244Z,3.80
2023-05-01T15:38:42.484Z,4.80
2023-05-01T15:41:09.796Z,3.90
2023-05-01T15:43:37.973Z,3.73
2023-05-01T15:46:05.687Z,3.93
2023-05-01T15:55:30.691Z,3.77
2023-05-01T15:57:57.686Z,3.33
2023-05-01T16:00:24.959Z,4.10
2023-05-01T16:02:52.211Z,3.50
2023-05-01T16:05:21.702Z,3.70
2023-05-01T16:07:54.461Z,3.40
2023-05-01T16:10:21.905Z,3.00
2023-05-01T16:20:43.544Z,3.50
2023-05-01T16:23:11.754Z,3.00
2023-05-01T16:25:45.363Z,3.27
2023-05-01T16:28:12.647Z,3.13
2023-05-01T16:30:42.033Z,3.37
2023-05-01T16:33:17.557Z,3.83
2023-05-01T16:35:49.756Z,3.57
2023-05-01T16:41:08.421Z,3.53
2023-05-01T16:43:35.964Z,3.20
2023-05-01T16:46:04.066Z,3.37
2023-05-01T16:48:31.728Z,3.50
2023-05-01T16:50:58.659Z,3.93
2023-05-01T16:53:26.209Z,3.00
2023-05-01T16:55:53.133Z,3.20
2023-05-01T16:58:22.242Z,3.10
2023-05-01T17:03:30.660Z,3.60
2023-05-01T17:05:58.582Z,3.33
2023-05-01T17:08:26.432Z,3.17
2023-05-01T17:10:53.779Z,3.00
2023-05-01T17:13:21.249Z,3.00
2023-05-01T17:15:49.237Z,3.13
2023-05-01T17:18:21.336Z,3.20
2023-05-01T17:28:39.559Z,2.40
2023-05-01T17:31:08.070Z,2.80
2023-05-01T17:33:35.384Z,2.77
2023-05-01T17:36:03.435Z,2.97
2023-05-01T17:38:30.253Z,2.73
2023-05-01T17:40:57.824Z,2.50
2023-05-01T17:43:26.364Z,2.53
2023-05-01T17:53:44.287Z,3.20
2023-05-01T17:56:11.670Z,3.70
2023-05-01T17:58:38.888Z,3.20
2023-05-01T18:01:06.291Z,3.00
2023-05-01T18:03:35.611Z,2.93
2023-05-01T18:06:03.832Z,3.07
2023-05-01T18:08:32.441Z,2.80
2023-05-01T18:19:05.794Z,2.87
2023-05-01T18:21:36.279Z,3.20
2023-05-01T18:24:04.619Z,3.30
2023-05-01T18:26:32.399Z,2.80
2023-05-01T18:29:00.362Z,2.70
2023-05-01T18:31:28.544Z,2.63
2023-05-01T18:33:56.963Z,3.17
2023-05-01T18:44:14.854Z,2.80
2023-05-01T18:46:42.162Z,2.73
2023-05-01T18:49:09.154Z,2.90
2023-05-01T18:51:36.449Z,3.10
2023-05-01T18:54:05.213Z,3.10
2023-05-01T18:56:32.386Z,3.40
2023-05-01T18:58:59.918Z,2.90
2023-05-01T19:01:28.461Z,2.97
2023-05-01T19:09:00.793Z,3.30
2023-05-01T19:11:31.073Z,2.63
2023-05-01T19:13:58.790Z,3.37
2023-05-01T19:16:27.146Z,3.60
2023-05-01T19:18:55.406Z,2.97
2023-05-01T19:21:23.062Z,2.80
2023-05-01T19:23:50.412Z,2.87
2023-05-01T19:34:14.471Z,2.93
2023-05-01T19:36:43.048Z,2.60
2023-05-01T19:39:10.501Z,2.93
2023-05-01T19:41:39.869Z,2.80
2023-05-01T19:44:08.328Z,2.90
2023-05-01T19:46:36.412Z,2.70
2023-05-01T19:49:03.901Z,2.43
2023-05-01T19:54:26.582Z,2.37
2023-05-01T19:56:53.819Z,3.03
2023-05-01T19:59:21.865Z,2.50
2023-05-01T20:01:49.771Z,2.40
2023-05-01T20:04:17.184Z,2.17
2023-05-01T20:06:45.567Z,2.77
2023-05-01T20:09:13.221Z,2.27
2023-05-01T20:14:36.492Z,2.60
2023-05-01T20:17:06.947Z,2.30
2023-05-01T20:19:34.033Z,2.53
2023-05-01T20:22:01.270Z,2.73
2023-05-01T20:24:29.500Z,2.60
2023-05-01T20:26:59.339Z,2.50
2023-05-01T20:29:27.051Z,1.83
2023-05-01T20:36:58.895Z,3.00
2023-05-01T20:39:26.223Z,3.10
2023-05-01T20:41:54.128Z,2.83
2023-05-01T20:44:21.706Z,3.07
2023-05-01T20:46:49.252Z,3.27
2023-05-01T20:49:16.301Z,3.40
2023-05-01T20:51:43.371Z,3.07
2023-05-01T21:01:55.107Z,3.57
2023-05-01T21:04:23.971Z,4.03
2023-05-01T21:06:52.822Z,4.10
2023-05-01T21:09:19.986Z,4.50
2023-05-01T21:11:47.273Z,3.97
2023-05-01T21:14:15.630Z,3.97
2023-05-01T21:16:43.381Z,3.47
2023-05-01T21:27:10.163Z,3.73
2023-05-01T21:29:38.671Z,3.90
2023-05-01T21:32:06.313Z,3.80
2023-05-01T21:34:34.983Z,4.17
2023-05-01T21:37:02.602Z,3.63
2023-05-01T21:39:31.456Z,3.80
2023-05-01T21:41:58.963Z,4.23
2023-05-01T21:52:08.426Z,4.70
2023-05-01T21:54:36.707Z,4.57
2023-05-01T21:57:04.940Z,5.03
2023-05-01T21:59:35.593Z,5.07
2023-05-01T22:02:04.909Z,4.10
2023-05-01T22:04:32.049Z,4.30
2023-05-01T22:06:59.230Z,4.87
2023-05-01T22:12:34.227Z,6.60
2023-05-01T22:15:01.383Z,6.53
2023-05-01T22:17:29.496Z,5.77
2023-05-01T22:19:57.034Z,5.80
2023-05-01T22:22:24.530Z,5.30
2023-05-01T22:24:52.599Z,5.77
2023-05-01T22:27:19.846Z,5.87
2023-05-01T22:29:49.206Z,6.33
2023-05-01T22:37:21.265Z,7.37
2023-05-01T22:39:48.407Z,6.90
2023-05-01T22:42:16.145Z,7.07
2023-05-01T22:44:43.414Z,6.90
2023-05-01T22:47:10.603Z,8.13
2023-05-01T22:49:37.848Z,7.67
2023-05-01T22:52:05.821Z,8.17
2023-05-01T22:57:18.109Z,8.53
2023-05-01T22:59:45.784Z,8.83
2023-05-01T23:02:16.988Z,8.47
2023-05-01T23:04:44.595Z,8.80
2023-05-01T23:07:14.359Z,9.20
2023-05-01T23:09:42.021Z,10.57
2023-05-01T23:12:18.656Z,10.83
2023-05-01T23:17:40.842Z,11.40
2023-05-01T23:20:09.374Z,11.17
2023-05-01T23:22:37.720Z,10.00
2023-05-01T23:25:06.872Z,12.77
2023-05-01T23:27:36.041Z,10.97
2023-05-01T23:30:05.928Z,11.53
2023-05-01T23:32:34.469Z,11.50
2023-05-01T23:43:12.875Z,11.33
2023-05-01T23:45:40.061Z,12.43
2023-05-01T23:48:07.659Z,10.87
2023-05-01T23:50:35.344Z,10.60
2023-05-01T23:53:06.890Z,13.10
2023-05-01T23:55:35.345Z,11.97
2023-05-01T23:58:02.777Z,11.77
